createdAt,value
2018-07-27T00:04:17.514Z,4.33
2018-07-27T00:09:15.034Z,3.80
2018-07-27T00:14:12.494Z,3.80
2018-07-27T00:19:09.990Z,3.50
2018-07-27T00:24:07.453Z,4.67
2018-07-27T00:34:10.933Z,3.93
2018-07-27T00:39:09.557Z,4.47
2018-07-27T00:44:07.449Z,4.10
2018-07-27T00:49:04.986Z,4.17
2018-07-27T00:54:02.455Z,3.90
2018-07-27T00:59:02.295Z,4.60
2018-07-27T01:03:59.772Z,4.43
2018-07-27T01:08:57.222Z,4.40
2018-07-27T01:13:54.678Z,5.30
2018-07-27T01:18:52.219Z,4.93
2018-07-27T01:23:49.693Z,5.10
2018-07-27T01:28:47.152Z,5.50
2018-07-27T01:33:44.634Z,5.10
2018-07-27T01:38:42.105Z,5.90
2018-07-27T01:43:39.552Z,5.17
2018-07-27T01:48:37.057Z,5.40
2018-07-27T01:53:34.518Z,5.03
2018-07-27T01:58:31.969Z,5.50
2018-07-27T02:03:29.417Z,5.20
2018-07-27T02:08:26.902Z,5.20
2018-07-27T02:13:24.390Z,5.80
2018-07-27T02:18:21.890Z,6.70
2018-07-27T02:23:19.393Z,5.20
2018-07-27T02:28:16.962Z,4.70
2018-07-27T02:33:14.433Z,4.97
2018-07-27T02:38:11.893Z,5.07
2018-07-27T02:43:09.418Z,5.00
2018-07-27T02:48:06.886Z,5.17
2018-07-27T02:53:04.482Z,5.37
2018-07-27T02:58:01.974Z,5.30
2018-07-27T03:02:59.494Z,6.40
2018-07-27T03:07:56.989Z,5.10
2018-07-27T03:12:54.551Z,4.57
2018-07-27T03:17:52.075Z,5.53
2018-07-27T03:22:49.570Z,5.40
2018-07-27T03:27:47.074Z,4.80
2018-07-27T03:32:44.628Z,5.07
2018-07-27T03:37:42.126Z,6.00
2018-07-27T03:42:39.722Z,5.60
2018-07-27T03:47:37.201Z,5.77
2018-07-27T03:52:34.703Z,5.10
2018-07-27T03:57:32.231Z,5.43
2018-07-27T04:02:29.755Z,5.80
2018-07-27T04:07:27.289Z,8.97
2018-07-27T04:12:26.714Z,6.60
2018-07-27T04:17:24.291Z,6.20
2018-07-27T04:22:22.266Z,6.47
2018-07-27T04:27:19.958Z,6.93
2018-07-27T04:32:17.482Z,7.00
2018-07-27T04:37:15.014Z,7.03
2018-07-27T04:42:12.511Z,7.70
2018-07-27T04:47:10.036Z,6.37
2018-07-27T04:52:07.523Z,6.30
2018-07-27T04:57:05.100Z,7.00
2018-07-27T05:02:02.638Z,6.13
2018-07-27T05:07:00.134Z,6.07
2018-07-27T05:11:57.809Z,5.77
2018-07-27T05:16:55.297Z,6.70
2018-07-27T05:21:52.777Z,7.10
2018-07-27T05:26:50.271Z,6.43
2018-07-27T05:31:48.308Z,5.90
2018-07-27T05:36:45.810Z,6.63
2018-07-27T05:41:43.354Z,6.87
2018-07-27T05:46:40.942Z,6.40
2018-07-27T05:51:38.426Z,6.83
2018-07-27T05:56:35.942Z,5.97
2018-07-27T06:01:33.438Z,6.60
2018-07-27T06:06:30.899Z,6.50
2018-07-27T06:11:28.393Z,6.70
2018-07-27T06:16:25.893Z,5.80
2018-07-27T06:21:23.491Z,5.70
2018-07-27T06:26:20.994Z,6.60
2018-07-27T06:31:18.569Z,6.00
2018-07-27T06:36:17.612Z,6.30
2018-07-27T06:41:16.470Z,5.87
2018-07-27T06:46:14.014Z,5.57
2018-07-27T06:51:11.504Z,6.17
2018-07-27T06:56:09.076Z,6.30
2018-07-27T07:01:06.666Z,5.50
2018-07-27T07:06:04.214Z,6.43
2018-07-27T07:11:01.709Z,6.53
2018-07-27T07:15:59.207Z,5.17
2018-07-27T07:20:56.682Z,5.83
2018-07-27T07:25:54.343Z,4.80
2018-07-27T07:30:51.707Z,5.37
2018-07-27T07:35:49.191Z,5.67
2018-07-27T07:40:46.678Z,5.50
2018-07-27T07:45:44.164Z,5.30
2018-07-27T07:50:41.670Z,5.00
2018-07-27T07:55:39.245Z,4.80
2018-07-27T08:00:36.769Z,5.27
2018-07-27T08:05:34.333Z,5.30
2018-07-27T08:10:31.802Z,4.47
2018-07-27T08:15:29.290Z,5.20
2018-07-27T08:20:26.768Z,5.60
2018-07-27T08:25:24.298Z,5.60
2018-07-27T08:30:21.829Z,4.80
2018-07-27T08:35:19.347Z,5.20
2018-07-27T08:40:16.892Z,4.17
2018-07-27T08:45:14.478Z,4.30
2018-07-27T08:50:11.993Z,4.90
2018-07-27T08:55:09.499Z,4.30
2018-07-27T09:00:07.039Z,4.90
2018-07-27T09:05:04.603Z,4.77
2018-07-27T09:10:02.104Z,4.03
2018-07-27T09:14:59.678Z,3.40
2018-07-27T09:19:57.169Z,4.27
2018-07-27T09:24:54.993Z,4.00
2018-07-27T09:29:53.400Z,4.00
2018-07-27T09:34:57.530Z,3.97
2018-07-27T09:39:55.171Z,3.70
2018-07-27T09:44:52.762Z,3.90
2018-07-27T09:49:50.267Z,4.30
2018-07-27T09:54:47.750Z,4.00
2018-07-27T09:59:46.301Z,3.17
2018-07-27T10:04:43.798Z,3.40
2018-07-27T10:09:42.558Z,3.50
2018-07-27T10:14:46.761Z,3.70
2018-07-27T10:19:47.125Z,3.13
2018-07-27T10:24:44.666Z,3.90
2018-07-27T10:29:43.190Z,3.90
2018-07-27T10:34:40.712Z,3.90
2018-07-27T10:39:38.197Z,2.67
2018-07-27T10:44:35.735Z,2.80
2018-07-27T10:49:33.402Z,2.13
2018-07-27T10:54:30.905Z,2.50
2018-07-27T10:59:29.437Z,2.70
2018-07-27T11:04:26.944Z,2.33
2018-07-27T11:09:24.493Z,3.07
2018-07-27T11:14:22.015Z,3.77
2018-07-27T11:19:19.559Z,2.43
2018-07-27T11:24:17.115Z,2.07
2018-07-27T11:29:17.659Z,2.97
2018-07-27T11:34:15.482Z,3.23
2018-07-27T11:39:13.117Z,3.00
2018-07-27T11:44:10.711Z,3.00
2018-07-27T11:49:08.258Z,3.43
2018-07-27T11:54:05.814Z,2.77
2018-07-27T11:59:14.783Z,3.37
2018-07-27T12:04:12.478Z,3.93
2018-07-27T12:09:11.058Z,3.37
2018-07-27T12:14:08.848Z,3.37
2018-07-27T12:19:06.143Z,4.10
2018-07-27T12:24:03.657Z,4.20
2018-07-27T12:29:10.546Z,3.90
2018-07-27T12:34:08.080Z,2.70
2018-07-27T12:39:08.542Z,3.80
2018-07-27T12:44:06.098Z,3.10
2018-07-27T12:49:03.748Z,3.10
2018-07-27T12:54:01.254Z,3.80
2018-07-27T12:59:02.641Z,3.83
2018-07-27T13:04:00.253Z,4.20
2018-07-27T13:08:57.796Z,4.57
2018-07-27T13:13:55.333Z,4.33
2018-07-27T13:18:53.037Z,3.80
2018-07-27T13:23:55.909Z,4.27
2018-07-27T13:28:56.925Z,4.03
2018-07-27T13:34:05.575Z,4.10
2018-07-27T13:39:03.936Z,4.10
2018-07-27T13:44:03.837Z,4.00
2018-07-27T13:49:06.463Z,4.77
2018-07-27T13:54:06.454Z,3.80
2018-07-27T13:59:09.638Z,3.90
2018-07-27T14:04:14.789Z,4.17
2018-07-27T14:09:17.570Z,4.10
2018-07-27T14:14:22.799Z,3.83
2018-07-27T14:24:35.963Z,2.97
2018-07-27T14:29:40.299Z,3.60
2018-07-27T14:34:40.538Z,3.50
2018-07-27T14:39:41.081Z,3.80
2018-07-27T14:44:42.023Z,3.63
2018-07-27T14:49:44.794Z,3.13
2018-07-27T14:54:44.952Z,3.50
2018-07-27T14:59:54.405Z,4.23
2018-07-27T15:04:54.911Z,3.47
2018-07-27T15:09:54.433Z,3.40
2018-07-27T15:14:57.535Z,3.67
2018-07-27T15:19:58.592Z,3.80
2018-07-27T15:24:59.881Z,3.80
2018-07-27T15:30:05.941Z,3.40
2018-07-27T15:35:05.100Z,3.70
2018-07-27T15:40:02.690Z,3.63
2018-07-27T15:45:00.178Z,3.80
2018-07-27T15:49:57.696Z,4.10
2018-07-27T15:54:55.252Z,4.00
2018-07-27T15:59:52.807Z,3.93
2018-07-27T16:04:50.369Z,4.20
2018-07-27T16:09:47.903Z,4.10
2018-07-27T16:14:45.426Z,3.80
2018-07-27T16:19:42.982Z,4.27
2018-07-27T16:24:40.493Z,3.70
2018-07-27T16:29:39.014Z,4.40
2018-07-27T16:34:43.762Z,3.87
2018-07-27T16:39:41.398Z,3.70
2018-07-27T16:44:38.918Z,4.50
2018-07-27T16:49:37.984Z,4.63
2018-07-27T16:54:35.535Z,4.33
2018-07-27T16:59:36.652Z,4.77
2018-07-27T17:04:35.353Z,4.43
2018-07-27T17:09:34.651Z,3.97
2018-07-27T17:14:33.445Z,3.43
2018-07-27T17:19:31.305Z,3.90
2018-07-27T17:24:30.183Z,4.30
2018-07-27T17:29:32.440Z,4.33
2018-07-27T17:34:30.927Z,4.27
2018-07-27T17:39:31.017Z,5.10
2018-07-27T17:44:30.198Z,4.63
2018-07-27T17:49:28.542Z,5.43
2018-07-27T17:54:26.117Z,5.77
2018-07-27T17:59:26.759Z,5.30
2018-07-27T18:04:24.414Z,6.40
2018-07-27T18:09:21.927Z,5.57
2018-07-27T18:14:19.437Z,4.60
2018-07-27T18:19:16.969Z,6.00
2018-07-27T18:24:14.466Z,5.30
2018-07-27T18:29:15.592Z,6.20
2018-07-27T18:34:13.256Z,5.60
2018-07-27T18:39:11.891Z,5.63
2018-07-27T18:44:09.423Z,6.43
2018-07-27T18:49:07.085Z,6.40
2018-07-27T18:54:04.921Z,6.90
2018-07-27T18:59:08.255Z,5.87
2018-07-27T19:04:07.366Z,7.17
2018-07-27T19:09:08.420Z,6.70
2018-07-27T19:14:08.527Z,7.10
2018-07-27T19:19:06.944Z,6.20
2018-07-27T19:24:07.278Z,7.67
2018-07-27T19:29:05.646Z,7.80
2018-07-27T19:34:04.082Z,7.33
2018-07-27T19:39:01.942Z,6.97
2018-07-27T19:43:59.915Z,7.57
2018-07-27T19:48:58.092Z,7.10
2018-07-27T19:53:56.443Z,7.30
2018-07-27T19:58:54.624Z,6.20
2018-07-27T20:03:52.621Z,6.33
2018-07-27T20:08:50.683Z,6.20
2018-07-27T20:13:49.352Z,6.67
2018-07-27T20:18:47.639Z,7.00
2018-07-27T20:23:46.746Z,6.67
2018-07-27T20:28:45.093Z,6.53
2018-07-27T20:33:43.234Z,6.57
2018-07-27T20:38:41.413Z,6.30
2018-07-27T20:43:39.524Z,6.07
2018-07-27T20:48:37.719Z,6.37
2018-07-27T20:53:36.959Z,6.27
2018-07-27T20:58:34.983Z,6.30
2018-07-27T21:03:32.971Z,7.33
2018-07-27T21:08:30.876Z,5.70
2018-07-27T21:13:28.374Z,6.13
2018-07-27T21:18:25.843Z,5.97
2018-07-27T21:23:28.365Z,5.60
2018-07-27T21:28:26.032Z,6.13
2018-07-27T21:33:23.506Z,14.17
2018-07-27T21:38:21.663Z,6.83
2018-07-27T21:43:19.221Z,8.30
2018-07-27T21:48:16.677Z,6.40
2018-07-27T21:53:16.756Z,7.30
2018-07-27T21:58:14.234Z,6.27
2018-07-27T22:03:11.718Z,6.60
2018-07-27T22:08:09.251Z,20.73
2018-07-27T22:13:06.753Z,6.83
2018-07-27T22:18:04.308Z,7.40
2018-07-27T22:23:15.067Z,7.40
2018-07-27T22:28:12.627Z,6.77
2018-07-27T22:33:10.094Z,6.70
2018-07-27T22:38:07.568Z,6.60
2018-07-27T22:43:05.128Z,6.60
2018-07-27T22:48:02.587Z,7.17
2018-07-27T22:53:09.706Z,6.73
2018-07-27T22:58:07.318Z,6.00
2018-07-27T23:03:04.992Z,5.80
2018-07-27T23:08:02.520Z,6.07
2018-07-27T23:13:00.040Z,5.33
2018-07-27T23:17:57.511Z,6.70
2018-07-27T23:23:00.000Z,6.00
2018-07-27T23:27:57.560Z,5.77
2018-07-27T23:32:55.017Z,5.60
2018-07-27T23:37:52.465Z,5.63
2018-07-27T23:42:49.943Z,5.90
2018-07-27T23:47:47.458Z,5.53
2018-07-27T23:52:45.303Z,6.87
2018-07-27T23:57:42.891Z,5.80
